BAW2256 TKPK-TAPA
Flight info
| Callsign | BAW2256 |
|---|---|
| Flight time | 0h 15m |
| Altitude | 9000 |
| Route | KIPUR1 BOMET DCT ANU DCT |
| Aircraft | B772/H-SDE1E3FGHIJ3J5J6M1M2P2RWXYZ/LB1D1 |
Departure
| Time | 2026-04-21 18:40 |
|---|---|
| Airport | Robert L. Bradshaw International Airport (TKPK) |
Arrival
| Time | 2026-04-21 18:55 |
|---|---|
| Airport | V. C. Bird International Airport (TAPA) |
| Time | Latitude | Longitude | Altitude | Speed | Heading |
|---|---|---|---|---|---|
| 2026-04-21 18:22 | 17.31016 | -62.71622 | 164 ft | 0 kts | 193° |
| 2026-04-21 18:36 | 17.31005 | -62.71644 | 164 ft | 9 kts | 264° |
| 2026-04-21 18:36 | 17.31016 | -62.71720 | 164 ft | 11 kts | 272° |
| 2026-04-21 18:36 | 17.30979 | -62.71788 | 164 ft | 11 kts | 233° |
| 2026-04-21 18:36 | 17.30936 | -62.71854 | 164 ft | 11 kts | 237° |
| 2026-04-21 18:37 | 17.30896 | -62.71921 | 165 ft | 11 kts | 239° |
| 2026-04-21 18:37 | 17.30856 | -62.71988 | 165 ft | 11 kts | 236° |
| 2026-04-21 18:37 | 17.30812 | -62.72054 | 166 ft | 11 kts | 235° |
| 2026-04-21 18:37 | 17.30768 | -62.72120 | 167 ft | 11 kts | 235° |
| 2026-04-21 18:38 | 17.30728 | -62.72187 | 168 ft | 11 kts | 246° |
| 2026-04-21 18:38 | 17.30718 | -62.72267 | 172 ft | 11 kts | 267° |
| 2026-04-21 18:38 | 17.30713 | -62.72347 | 178 ft | 11 kts | 266° |
| 2026-04-21 18:38 | 17.30708 | -62.72427 | 181 ft | 11 kts | 265° |
| 2026-04-21 18:39 | 17.30732 | -62.72473 | 181 ft | 8 kts | 13° |
| 2026-04-21 18:39 | 17.30781 | -62.72402 | 180 ft | 27 kts | 56° |
| 2026-04-21 18:39 | 17.31049 | -62.71982 | 179 ft | 117 kts | 56° |
| 2026-04-21 18:39 | 17.31622 | -62.71076 | 565 ft | 165 kts | 57° |
| 2026-04-21 18:40 | 17.32279 | -62.70045 | 1625 ft | 172 kts | 57° |
| 2026-04-21 18:40 | 17.32976 | -62.68935 | 2396 ft | 194 kts | 57° |
| 2026-04-21 18:40 | 17.33483 | -62.68129 | 2838 ft | 207 kts | 57° |
| 2026-04-21 18:40 | 17.34642 | -62.66291 | 3382 ft | 249 kts | 57° |
| 2026-04-21 18:41 | 17.35665 | -62.64674 | 3671 ft | 283 kts | 57° |
| 2026-04-21 18:41 | 17.36787 | -62.62897 | 4258 ft | 298 kts | 57° |
| 2026-04-21 18:41 | 17.37681 | -62.60928 | 4805 ft | 308 kts | 78° |
| 2026-04-21 18:41 | 17.37604 | -62.58720 | 5661 ft | 313 kts | 105° |
| 2026-04-21 18:42 | 17.36674 | -62.56660 | 6525 ft | 316 kts | 127° |
| 2026-04-21 18:42 | 17.35322 | -62.54862 | 6989 ft | 318 kts | 121° |
| 2026-04-21 18:42 | 17.34617 | -62.52655 | 7040 ft | 322 kts | 96° |
| 2026-04-21 18:42 | 17.34477 | -62.50312 | 7051 ft | 326 kts | 95° |
| 2026-04-21 18:43 | 17.34177 | -62.47959 | 7036 ft | 323 kts | 104° |
| 2026-04-21 18:43 | 17.33277 | -62.45800 | 7044 ft | 327 kts | 121° |
| 2026-04-21 18:43 | 17.32067 | -62.43773 | 7038 ft | 329 kts | 122° |
| 2026-04-21 18:43 | 17.30885 | -62.41755 | 7035 ft | 330 kts | 121° |
| 2026-04-21 18:44 | 17.29705 | -62.39693 | 7028 ft | 330 kts | 121° |
| 2026-04-21 18:44 | 17.28542 | -62.37628 | 7024 ft | 328 kts | 120° |
| 2026-04-21 18:44 | 17.27394 | -62.35571 | 7022 ft | 327 kts | 120° |
| 2026-04-21 18:44 | 17.26254 | -62.33518 | 7019 ft | 326 kts | 120° |
| 2026-04-21 18:45 | 17.25121 | -62.31470 | 7016 ft | 325 kts | 120° |
| 2026-04-21 18:45 | 17.23990 | -62.29427 | 7014 ft | 324 kts | 120° |
| 2026-04-21 18:45 | 17.22862 | -62.27386 | 7013 ft | 324 kts | 120° |
| 2026-04-21 18:45 | 17.21772 | -62.25417 | 6996 ft | 309 kts | 120° |
| 2026-04-21 18:46 | 17.20723 | -62.23522 | 6983 ft | 293 kts | 120° |
| 2026-04-21 18:46 | 17.19701 | -62.21743 | 6985 ft | 278 kts | 122° |
| 2026-04-21 18:46 | 17.18644 | -62.20070 | 6769 ft | 274 kts | 123° |
| 2026-04-21 18:46 | 17.17582 | -62.18426 | 6503 ft | 272 kts | 124° |
| 2026-04-21 18:47 | 17.16530 | -62.16795 | 6204 ft | 270 kts | 123° |
| 2026-04-21 18:47 | 17.15485 | -62.15171 | 5914 ft | 268 kts | 123° |
| 2026-04-21 18:47 | 17.14449 | -62.13555 | 5626 ft | 267 kts | 123° |
| 2026-04-21 18:47 | 17.13418 | -62.11945 | 5336 ft | 266 kts | 123° |
| 2026-04-21 18:48 | 17.12410 | -62.10365 | 5041 ft | 265 kts | 123° |
| 2026-04-21 18:48 | 17.11389 | -62.08767 | 4763 ft | 264 kts | 122° |
| 2026-04-21 18:48 | 17.10374 | -62.07174 | 4467 ft | 263 kts | 122° |
| 2026-04-21 18:48 | 17.09361 | -62.05585 | 4185 ft | 262 kts | 122° |
| 2026-04-21 18:49 | 17.08353 | -62.04001 | 3882 ft | 261 kts | 122° |
| 2026-04-21 18:49 | 17.07352 | -62.02431 | 3625 ft | 254 kts | 122° |
| 2026-04-21 18:49 | 17.06720 | -62.01445 | 3531 ft | 239 kts | 122° |
| 2026-04-21 18:49 | 17.05534 | -61.99591 | 3395 ft | 226 kts | 122° |
| 2026-04-21 18:50 | 17.04679 | -61.98251 | 3302 ft | 217 kts | 122° |
| 2026-04-21 18:50 | 17.04041 | -61.96898 | 3218 ft | 201 kts | 98° |
| 2026-04-21 18:50 | 17.04163 | -61.95491 | 3169 ft | 194 kts | 71° |
| 2026-04-21 18:50 | 17.04762 | -61.94231 | 3015 ft | 195 kts | 59° |
| 2026-04-21 18:51 | 17.05480 | -61.93029 | 2794 ft | 194 kts | 58° |
| 2026-04-21 18:51 | 17.06191 | -61.91849 | 2571 ft | 191 kts | 58° |
| 2026-04-21 18:51 | 17.06889 | -61.90687 | 2352 ft | 185 kts | 58° |
| 2026-04-21 18:51 | 17.07557 | -61.89569 | 2098 ft | 179 kts | 58° |
| 2026-04-21 18:52 | 17.08196 | -61.88501 | 1890 ft | 171 kts | 58° |
| 2026-04-21 18:52 | 17.08797 | -61.87489 | 1673 ft | 156 kts | 59° |
| 2026-04-21 18:52 | 17.09350 | -61.86564 | 1460 ft | 143 kts | 58° |
| 2026-04-21 18:52 | 17.09855 | -61.85721 | 1275 ft | 134 kts | 59° |
| 2026-04-21 18:53 | 17.10341 | -61.84891 | 1142 ft | 134 kts | 58° |
| 2026-04-21 18:53 | 17.10838 | -61.84058 | 943 ft | 134 kts | 60° |
| 2026-04-21 18:53 | 17.11332 | -61.83240 | 791 ft | 132 kts | 59° |
| 2026-04-21 18:53 | 17.11349 | -61.83210 | 784 ft | 132 kts | 59° |
| 2026-04-21 18:54 | 17.11573 | -61.82831 | 690 ft | 130 kts | 59° |
| 2026-04-21 18:54 | 17.12044 | -61.82034 | 542 ft | 128 kts | 59° |
| 2026-04-21 18:54 | 17.12516 | -61.81236 | 362 ft | 129 kts | 59° |
| 2026-04-21 18:54 | 17.12984 | -61.80437 | 173 ft | 129 kts | 59° |
| 2026-04-21 18:55 | 17.13296 | -61.79910 | 89 ft | 128 kts | 60° |
| 2026-04-21 18:55 | 17.13819 | -61.79014 | 63 ft | 77 kts | 59° |
| 2026-04-21 18:55 | 17.14001 | -61.78707 | 63 ft | 26 kts | 59° |
| 2026-04-21 18:55 | 17.14073 | -61.78640 | 63 ft | 13 kts | 353° |
| 2026-04-21 18:56 | 17.14103 | -61.78714 | 70 ft | 13 kts | 271° |
| 2026-04-21 18:56 | 17.14109 | -61.78807 | 64 ft | 13 kts | 274° |
| 2026-04-21 18:56 | 17.14080 | -61.78905 | 60 ft | 15 kts | 238° |
| 2026-04-21 18:56 | 17.14040 | -61.78975 | 58 ft | 9 kts | 251° |
| 2026-04-21 18:57 | 17.14072 | -61.79019 | 66 ft | 5 kts | 328° |
| 2026-04-21 18:57 | 17.14095 | -61.79033 | 61 ft | 2 kts | 329° |
| 2026-04-21 18:57 | 17.14096 | -61.79034 | 61 ft | 0 kts | 329° |